Time;durP1;ratioP1;P1;durP2;ratioP2;P2;SDS_P1;SDS_P2;PMS_P1;PMS_P2;Temp;Humidity;BMP_temperature;BMP_pressure;BME280_temperature;BME280_humidity;BME280_pressure;Samples;Min_cycle;Max_cycle;Signal;HPM_P1;HPM_P2
2022/03/28 00:00:11;;;;;;;22.88;7.07;;;7.60;99.90;;;;;;5012876;28;20080;-62
2022/03/28 00:02:40;;;;;;;22.65;6.78;;;7.60;99.90;;;;;;5014819;28;20097;-63
2022/03/28 00:05:07;;;;;;;21.00;6.15;;;7.60;99.90;;;;;;5013832;28;20030;-63
2022/03/28 00:07:32;;;;;;;20.00;5.60;;;7.60;99.90;;;;;;5014228;28;20022;-63
2022/03/28 00:09:58;;;;;;;22.98;7.70;;;7.50;99.90;;;;;;5013563;28;20037;-63
2022/03/28 00:12:24;;;;;;;16.83;5.75;;;7.60;99.90;;;;;;5009133;28;20069;-63
2022/03/28 00:14:50;;;;;;;19.08;5.50;;;7.50;99.90;;;;;;5005280;28;20037;-63
2022/03/28 00:17:16;;;;;;;23.13;8.38;;;7.50;99.90;;;;;;5014021;28;20022;-63
2022/03/28 00:19:41;;;;;;;19.30;7.55;;;7.50;99.90;;;;;;5013759;28;20044;-63
2022/03/28 00:22:07;;;;;;;26.40;6.57;;;7.50;99.90;;;;;;5014002;28;20022;-63
2022/03/28 00:24:33;;;;;;;20.73;7.13;;;7.50;99.90;;;;;;5026906;28;20025;-62
2022/03/28 00:26:59;;;;;;;26.05;7.72;;;7.40;99.90;;;;;;5014258;28;20022;-63
2022/03/28 00:29:24;;;;;;;26.33;8.68;;;7.50;99.90;;;;;;5013611;28;20079;-62
2022/03/28 00:31:50;;;;;;;29.85;9.65;;;7.40;99.90;;;;;;5013737;28;20022;-63
2022/03/28 00:34:21;;;;;;;22.40;8.10;;;7.40;99.90;;;;;;5013462;28;20126;-63
2022/03/28 00:36:50;;;;;;;28.00;8.60;;;7.40;99.90;;;;;;5013381;28;20481;-63
2022/03/28 00:39:20;;;;;;;36.13;9.88;;;7.40;99.90;;;;;;5013474;28;20152;-63
2022/03/28 00:41:47;;;;;;;35.00;10.40;;;7.40;99.90;;;;;;5013627;28;20022;-63
2022/03/28 00:44:13;;;;;;;34.35;10.88;;;7.50;99.90;;;;;;5013038;28;20109;-63
2022/03/28 00:46:39;;;;;;;37.92;11.50;;;7.50;99.90;;;;;;5013729;28;20149;-63
2022/03/28 00:49:05;;;;;;;33.55;11.95;;;7.50;99.90;;;;;;5013467;28;20048;-63
2022/03/28 00:51:31;;;;;;;38.75;13.02;;;7.50;99.90;;;;;;5027982;28;20540;-63
2022/03/28 00:53:57;;;;;;;31.60;12.68;;;7.60;99.90;;;;;;5012686;28;20032;-63
2022/03/28 00:56:24;;;;;;;30.15;14.15;;;7.60;99.90;;;;;;5012824;28;20080;-63
2022/03/28 00:58:49;;;;;;;33.08;14.63;;;7.60;99.90;;;;;;5013206;28;20399;-63
2022/03/28 01:01:15;;;;;;;36.78;14.52;;;7.70;99.90;;;;;;5013620;28;20118;-63
2022/03/28 01:03:41;;;;;;;32.03;14.60;;;7.70;99.90;;;;;;5012866;28;20030;-63
2022/03/28 01:06:07;;;;;;;40.35;15.68;;;7.70;99.90;;;;;;5012868;28;20364;-62
2022/03/28 01:08:34;;;;;;;34.08;15.38;;;7.70;99.90;;;;;;5013251;28;20042;-62
2022/03/28 01:11:03;;;;;;;34.47;14.88;;;7.70;99.90;;;;;;5013075;28;20026;-63
2022/03/28 01:13:31;;;;;;;35.90;14.77;;;7.80;99.90;;;;;;5013255;28;20032;-63
2022/03/28 01:15:58;;;;;;;36.97;15.60;;;7.80;99.90;;;;;;5013148;28;20026;-63
2022/03/28 01:18:23;;;;;;;31.77;14.15;;;7.80;99.90;;;;;;5012814;28;20018;-63
2022/03/28 01:20:49;;;;;;;34.35;15.80;;;7.80;99.90;;;;;;5013219;28;20037;-63
2022/03/28 01:23:15;;;;;;;38.13;15.10;;;7.80;99.90;;;;;;5013305;28;20380;-62
2022/03/28 01:25:43;;;;;;;34.92;14.88;;;7.90;99.90;;;;;;5013050;28;20128;-63
2022/03/28 01:28:09;;;;;;;34.35;14.23;;;7.90;99.90;;;;;;5012679;28;20531;-63
2022/03/28 01:30:35;;;;;;;36.63;13.98;;;7.90;99.90;;;;;;5013165;28;20030;-63
2022/03/28 01:33:02;;;;;;;27.60;13.02;;;7.90;99.90;;;;;;5012818;28;20046;-63
2022/03/28 01:35:28;;;;;;;34.95;12.90;;;7.90;99.90;;;;;;5012679;28;20105;-63
2022/03/28 01:37:54;;;;;;;33.13;13.73;;;7.90;99.90;;;;;;5012563;28;20044;-63
2022/03/28 01:40:20;;;;;;;34.05;13.05;;;7.90;99.90;;;;;;5012918;28;20526;-63
2022/03/28 01:42:48;;;;;;;32.15;12.40;;;7.90;99.90;;;;;;5012927;28;20030;-63
2022/03/28 01:45:15;;;;;;;34.50;13.93;;;7.90;99.90;;;;;;5012406;28;20022;-63
2022/03/28 01:47:41;;;;;;;35.33;14.38;;;7.80;99.90;;;;;;5012672;28;20389;-63
2022/03/28 01:50:07;;;;;;;32.03;12.65;;;7.80;99.90;;;;;;5012865;28;20034;-63
2022/03/28 01:52:32;;;;;;;28.35;11.60;;;7.80;99.90;;;;;;5028014;28;20438;-63
2022/03/28 01:54:58;;;;;;;36.28;12.48;;;7.80;99.90;;;;;;5013072;28;20045;-63
2022/03/28 01:57:24;;;;;;;31.95;12.05;;;7.80;99.90;;;;;;5012749;28;20030;-63
2022/03/28 01:59:50;;;;;;;33.70;12.23;;;7.80;99.90;;;;;;5012371;28;20099;-63
2022/03/28 02:02:16;;;;;;;41.45;13.55;;;7.90;99.90;;;;;;5012060;28;20030;-63
2022/03/28 02:04:41;;;;;;;28.58;12.30;;;7.90;99.90;;;;;;5014497;28;20030;-62
2022/03/28 02:07:07;;;;;;;36.63;12.73;;;7.90;99.90;;;;;;5016014;28;20029;-63
2022/03/28 02:09:32;;;;;;;28.45;11.80;;;7.90;99.90;;;;;;5016477;28;20518;-62
2022/03/28 02:11:58;;;;;;;34.70;12.75;;;7.90;99.90;;;;;;5015159;28;20030;-63
2022/03/28 02:14:23;;;;;;;38.45;12.05;;;7.90;99.90;;;;;;5016399;28;20124;-62
2022/03/28 02:16:49;;;;;;;29.80;12.38;;;7.90;99.90;;;;;;5015744;28;20466;-63
2022/03/28 02:19:15;;;;;;;33.78;11.30;;;7.90;99.90;;;;;;5016095;28;20038;-63
2022/03/28 02:21:40;;;;;;;28.17;9.40;;;7.90;99.90;;;;;;5016580;28;20109;-62
2022/03/28 02:24:06;;;;;;;26.02;10.02;;;7.90;99.90;;;;;;5015768;28;20026;-62
2022/03/28 02:26:32;;;;;;;31.20;10.68;;;7.90;99.90;;;;;;5016382;28;20050;-63
2022/03/28 02:28:58;;;;;;;25.42;10.55;;;7.90;99.90;;;;;;5015535;28;20044;-62
2022/03/28 02:31:23;;;;;;;24.70;10.68;;;7.90;99.90;;;;;;5015956;28;20026;-62
2022/03/28 02:33:49;;;;;;;23.48;8.95;;;8.00;99.90;;;;;;5030696;28;20033;-63
2022/03/28 02:36:15;;;;;;;24.48;9.35;;;8.00;99.90;;;;;;5015083;28;20022;-63
2022/03/28 02:38:40;;;;;;;25.67;10.32;;;8.00;99.90;;;;;;5015571;28;20030;-63
2022/03/28 02:41:07;;;;;;;35.78;12.77;;;8.00;99.90;;;;;;5015372;28;20032;-63
2022/03/28 02:43:32;;;;;;;32.45;12.57;;;8.00;99.90;;;;;;5015354;28;20378;-63
2022/03/28 02:45:58;;;;;;;27.10;11.27;;;8.00;99.90;;;;;;5015229;28;20492;-63
2022/03/28 02:48:23;;;;;;;26.27;9.80;;;8.00;99.90;;;;;;5015114;28;20458;-62
2022/03/28 02:50:49;;;;;;;19.65;7.75;;;8.00;99.90;;;;;;5015662;28;20465;-62
2022/03/28 02:53:15;;;;;;;21.98;8.80;;;8.00;99.90;;;;;;5015116;28;20477;-64
2022/03/28 02:55:41;;;;;;;24.23;8.88;;;8.00;99.90;;;;;;5014943;28;20052;-63
2022/03/28 02:58:07;;;;;;;24.58;8.88;;;8.00;99.90;;;;;;5015488;28;20413;-63
2022/03/28 03:00:32;;;;;;;22.27;8.25;;;8.10;99.90;;;;;;5015158;28;20037;-63
2022/03/28 03:02:58;;;;;;;24.85;8.75;;;8.10;99.90;;;;;;5015295;28;20469;-62
2022/03/28 03:05:23;;;;;;;21.40;8.55;;;8.10;99.90;;;;;;5015399;28;20037;-63
2022/03/28 03:07:49;;;;;;;21.83;8.27;;;8.10;99.90;;;;;;5015905;28;20034;-62
2022/03/28 03:10:15;;;;;;;23.48;8.98;;;8.10;99.90;;;;;;5014833;28;20033;-63
2022/03/28 03:12:41;;;;;;;21.40;7.82;;;8.00;99.90;;;;;;5014952;28;20032;-63
2022/03/28 03:15:07;;;;;;;21.13;8.23;;;8.00;99.90;;;;;;5015162;28;20528;-63
2022/03/28 03:17:32;;;;;;;23.73;8.10;;;8.10;99.90;;;;;;5014486;28;20022;-63
2022/03/28 03:19:58;;;;;;;18.45;7.20;;;8.10;99.90;;;;;;5014975;28;20049;-62
2022/03/28 03:22:24;;;;;;;27.70;8.40;;;8.10;99.90;;;;;;5014366;28;20385;-62
2022/03/28 03:24:49;;;;;;;19.17;7.22;;;8.00;99.90;;;;;;5013442;28;20026;-62
2022/03/28 03:27:15;;;;;;;28.25;7.78;;;8.00;99.90;;;;;;5015052;28;20480;-62
2022/03/28 03:29:41;;;;;;;34.70;9.27;;;8.00;99.90;;;;;;5015214;28;20386;-62
2022/03/28 03:32:07;;;;;;;37.85;7.97;;;8.00;99.90;;;;;;5014579;28;20029;-63
2022/03/28 03:34:34;;;;;;;37.95;8.85;;;8.00;99.90;;;;;;5010845;28;20037;-63
2022/03/28 03:37:00;;;;;;;28.05;7.63;;;7.90;99.90;;;;;;5015107;28;20026;-63
2022/03/28 03:39:26;;;;;;;28.88;9.32;;;7.90;99.90;;;;;;5013750;28;20045;-63
2022/03/28 03:41:52;;;;;;;58.28;10.05;;;7.90;99.90;;;;;;5014690;28;20030;-63
2022/03/28 03:44:19;;;;;;;28.23;8.77;;;7.90;99.90;;;;;;5014231;28;20406;-62
2022/03/28 03:46:45;;;;;;;28.55;9.18;;;7.90;99.90;;;;;;5013053;28;20022;-63
2022/03/28 03:49:11;;;;;;;29.20;8.30;;;7.90;99.90;;;;;;5014584;28;20072;-63
2022/03/28 03:51:37;;;;;;;38.83;8.27;;;8.00;99.90;;;;;;5012511;28;20093;-63
2022/03/28 03:54:03;;;;;;;32.63;8.40;;;7.90;99.90;;;;;;5014469;28;20466;-63
2022/03/28 03:56:29;;;;;;;32.40;9.52;;;7.90;99.90;;;;;;5013825;28;20084;-63
2022/03/28 03:58:56;;;;;;;30.13;7.90;;;7.90;99.90;;;;;;5014388;28;20026;-63
2022/03/28 04:01:21;;;;;;;26.92;8.95;;;7.90;99.90;;;;;;5013423;28;20367;-63
2022/03/28 04:03:47;;;;;;;42.75;10.80;;;7.90;99.90;;;;;;5014252;28;20029;-63
2022/03/28 04:06:13;;;;;;;38.40;10.43;;;7.90;99.90;;;;;;5013293;28;20030;-64
2022/03/28 04:08:39;;;;;;;206.77;22.83;;;7.90;99.90;;;;;;5014478;28;20424;-63
2022/03/28 04:11:06;;;;;;;119.85;14.95;;;7.90;99.90;;;;;;5013870;28;20036;-62
2022/03/28 04:13:32;;;;;;;48.17;10.57;;;7.90;99.90;;;;;;5013930;28;20097;-62
2022/03/28 04:15:58;;;;;;;44.63;11.27;;;7.90;99.90;;;;;;5028650;28;20493;-62
2022/03/28 04:18:25;;;;;;;155.77;17.80;;;8.00;99.90;;;;;;5013759;28;20108;-62
2022/03/28 04:20:52;;;;;;;64.35;11.20;;;8.00;99.90;;;;;;5014162;28;20026;-63
2022/03/28 04:23:18;;;;;;;158.18;19.23;;;8.00;99.90;;;;;;5013515;28;20014;-63
2022/03/28 04:25:43;;;;;;;42.65;10.40;;;8.00;99.90;;;;;;5013858;28;20048;-63
2022/03/28 04:28:09;;;;;;;55.90;10.18;;;7.90;99.90;;;;;;5012937;28;20147;-63
2022/03/28 04:30:36;;;;;;;34.88;9.55;;;8.00;99.90;;;;;;5013116;28;20032;-63
2022/03/28 04:33:02;;;;;;;117.93;17.20;;;8.00;99.90;;;;;;5013395;28;20061;-62
2022/03/28 04:35:28;;;;;;;35.75;10.43;;;8.00;99.90;;;;;;5013725;28;20494;-63
2022/03/28 04:37:54;;;;;;;48.80;11.50;;;8.00;99.90;;;;;;5013720;28;20084;-63
2022/03/28 04:40:21;;;;;;;49.83;10.75;;;7.90;99.90;;;;;;5013063;28;20034;-63
2022/03/28 04:42:48;;;;;;;50.15;13.10;;;7.90;99.90;;;;;;5012548;28;20028;-62
2022/03/28 04:45:14;;;;;;;69.63;13.15;;;7.90;99.90;;;;;;5013374;28;20022;-63
2022/03/28 04:47:40;;;;;;;34.25;11.55;;;7.90;99.90;;;;;;5013690;28;20148;-63
2022/03/28 04:50:07;;;;;;;39.03;11.35;;;7.90;99.90;;;;;;5013610;28;20033;-62
2022/03/28 04:52:33;;;;;;;120.50;17.58;;;7.90;99.90;;;;;;5012959;28;20026;-63
2022/03/28 04:54:58;;;;;;;32.70;12.32;;;7.90;99.90;;;;;;5013642;28;20040;-63
2022/03/28 04:57:24;;;;;;;38.60;12.18;;;7.90;99.90;;;;;;5013219;28;20026;-63
2022/03/28 04:59:50;;;;;;;61.38;11.57;;;7.90;99.90;;;;;;5013468;28;20037;-62
2022/03/28 05:02:16;;;;;;;53.97;13.18;;;7.90;99.90;;;;;;5013782;28;20029;-63
2022/03/28 05:04:42;;;;;;;31.80;10.15;;;7.90;99.90;;;;;;5012648;28;20453;-63
2022/03/28 05:07:07;;;;;;;47.65;10.85;;;7.90;99.90;;;;;;5013312;28;20108;-63
2022/03/28 05:09:33;;;;;;;90.75;14.52;;;7.90;99.90;;;;;;5012613;28;20026;-62
2022/03/28 05:11:59;;;;;;;54.22;10.73;;;8.00;99.90;;;;;;5013059;28;20033;-62
2022/03/28 05:14:24;;;;;;;56.20;10.13;;;7.90;99.90;;;;;;5012791;28;20061;-63
2022/03/28 05:16:50;;;;;;;59.55;13.43;;;7.90;99.90;;;;;;5013385;28;20038;-63
2022/03/28 05:19:16;;;;;;;44.22;10.52;;;7.90;99.90;;;;;;5013121;28;20088;-63
2022/03/28 05:21:42;;;;;;;43.63;10.95;;;7.90;99.90;;;;;;5012594;28;20473;-63
2022/03/28 05:24:07;;;;;;;63.97;12.57;;;7.90;99.90;;;;;;5013176;28;20036;-62
2022/03/28 05:26:33;;;;;;;59.45;11.95;;;7.90;99.90;;;;;;5012287;28;20050;-63
2022/03/28 05:28:59;;;;;;;50.17;12.88;;;7.90;99.90;;;;;;5012829;28;20034;-63
2022/03/28 05:31:24;;;;;;;82.57;13.90;;;7.90;99.90;;;;;;5013489;28;20022;-63
2022/03/28 05:33:50;;;;;;;65.80;15.13;;;7.90;99.90;;;;;;5012632;28;20034;-64
2022/03/28 05:36:16;;;;;;;65.32;12.90;;;7.90;99.90;;;;;;5012678;28;20358;-63
2022/03/28 05:38:42;;;;;;;82.03;14.30;;;7.90;99.90;;;;;;5014292;28;21773;-63
2022/03/28 05:41:08;;;;;;;73.75;14.75;;;7.90;99.90;;;;;;5016464;28;20101;-63
2022/03/28 05:43:35;;;;;;;52.65;13.80;;;7.90;99.90;;;;;;5016676;28;20129;-62
2022/03/28 05:46:03;;;;;;;67.30;15.00;;;8.00;99.90;;;;;;5016370;28;20030;-63
2022/03/28 05:48:29;;;;;;;58.28;13.52;;;7.90;99.90;;;;;;5016047;28;20386;-63
2022/03/28 05:50:55;;;;;;;127.53;18.63;;;7.90;99.90;;;;;;5017380;28;20033;-63
2022/03/28 05:53:20;;;;;;;66.75;16.17;;;8.00;99.90;;;;;;5015921;28;20432;-62
2022/03/28 05:55:46;;;;;;;56.80;12.63;;;8.00;99.90;;;;;;5017404;28;20025;-64
2022/03/28 05:58:12;;;;;;;41.95;13.68;;;8.00;99.90;;;;;;5015526;28;20033;-62
2022/03/28 06:00:38;;;;;;;39.15;14.32;;;8.00;99.90;;;;;;5016366;28;20066;-63
2022/03/28 06:03:05;;;;;;;51.05;11.55;;;8.10;99.90;;;;;;5017123;28;20465;-63
2022/03/28 06:05:31;;;;;;;32.67;10.18;;;8.10;99.90;;;;;;5015349;28;20040;-62
2022/03/28 06:07:57;;;;;;;42.85;9.65;;;8.10;99.90;;;;;;5016720;28;20113;-63
2022/03/28 06:10:23;;;;;;;74.22;11.82;;;8.10;99.90;;;;;;5014616;28;20124;-64
2022/03/28 06:12:49;;;;;;;37.53;10.75;;;8.00;99.90;;;;;;5015099;28;20034;-64
2022/03/28 06:15:15;;;;;;;46.10;11.88;;;8.00;99.90;;;;;;5016609;28;20030;-63
2022/03/28 06:17:43;;;;;;;48.28;10.50;;;8.00;99.90;;;;;;5015610;28;20144;-62
2022/03/28 06:20:09;;;;;;;50.47;11.00;;;7.90;99.90;;;;;;5016572;28;20045;-62
2022/03/28 06:22:35;;;;;;;43.08;9.45;;;7.90;99.90;;;;;;5017006;28;20089;-63
2022/03/28 06:25:01;;;;;;;48.33;12.48;;;8.00;99.90;;;;;;5016258;28;20081;-63
2022/03/28 06:27:27;;;;;;;43.75;10.98;;;8.00;99.90;;;;;;5016421;28;20108;-62
2022/03/28 06:29:52;;;;;;;31.13;11.35;;;8.10;99.90;;;;;;5016109;28;20084;-62
2022/03/28 06:32:18;;;;;;;42.15;10.63;;;8.20;99.90;;;;;;5016556;28;20026;-63
2022/03/28 06:34:44;;;;;;;35.72;11.80;;;8.20;99.90;;;;;;5016338;28;20021;-63
2022/03/28 06:37:10;;;;;;;35.17;9.85;;;8.30;99.90;;;;;;5016979;28;20449;-63
2022/03/28 06:39:36;;;;;;;32.92;9.40;;;8.40;99.90;;;;;;5016704;28;20034;-62
2022/03/28 06:42:04;;;;;;;36.65;9.02;;;8.40;99.90;;;;;;5016501;28;20049;-63
2022/03/28 06:44:30;;;;;;;48.08;10.25;;;8.50;99.90;;;;;;5016558;28;20022;-63
2022/03/28 06:46:56;;;;;;;28.52;8.73;;;8.50;99.90;;;;;;5016028;28;20481;-63
2022/03/28 06:49:22;;;;;;;62.67;9.75;;;8.60;99.90;;;;;;5015310;28;20460;-63
2022/03/28 06:51:47;;;;;;;40.15;8.57;;;8.60;99.90;;;;;;5016193;28;20144;-63
2022/03/28 06:54:14;;;;;;;48.67;8.52;;;8.60;99.90;;;;;;5015983;28;20060;-63
2022/03/28 06:56:41;;;;;;;24.98;8.18;;;8.60;99.90;;;;;;5015889;28;20030;-63
2022/03/28 06:59:08;;;;;;;29.33;9.18;;;8.60;99.90;;;;;;5016309;28;20038;-63
2022/03/28 07:01:34;;;;;;;30.45;9.15;;;8.60;99.90;;;;;;5016104;28;20394;-64
2022/03/28 07:04:00;;;;;;;27.92;9.82;;;8.60;99.90;;;;;;5016011;28;20037;-63
2022/03/28 07:06:25;;;;;;;23.45;8.63;;;8.70;99.90;;;;;;5016035;28;20026;-63
2022/03/28 07:08:51;;;;;;;21.27;7.55;;;8.70;99.90;;;;;;5014607;28;20135;-63
2022/03/28 07:11:17;;;;;;;34.47;7.95;;;8.80;99.90;;;;;;5014622;28;20367;-63
2022/03/28 07:13:43;;;;;;;68.32;10.45;;;8.80;99.90;;;;;;5015756;28;20053;-63
2022/03/28 07:16:08;;;;;;;28.67;8.68;;;8.80;99.90;;;;;;5018192;28;20021;-67
2022/03/28 07:18:34;;;;;;;48.92;10.05;;;8.80;99.90;;;;;;5015753;28;20033;-66
2022/03/28 07:20:59;;;;;;;33.88;9.80;;;8.80;99.90;;;;;;5015625;28;20455;-67
2022/03/28 07:23:25;;;;;;;44.35;9.82;;;8.80;99.90;;;;;;5015447;28;20048;-66
2022/03/28 07:25:51;;;;;;;27.02;9.20;;;8.90;99.90;;;;;;5015210;28;20052;-67
2022/03/28 07:28:17;;;;;;;32.25;9.75;;;9.00;99.90;;;;;;5015000;28;20455;-66
2022/03/28 07:30:43;;;;;;;43.70;9.50;;;9.00;99.90;;;;;;5011617;28;20018;-64
2022/03/28 07:33:09;;;;;;;28.30;8.75;;;9.10;99.90;;;;;;5014910;28;20037;-64
2022/03/28 07:35:35;;;;;;;24.30;8.50;;;9.10;99.90;;;;;;5015528;28;20030;-64
2022/03/28 07:38:02;;;;;;;28.38;9.45;;;9.10;99.90;;;;;;5015370;28;20029;-64
2022/03/28 07:40:28;;;;;;;39.30;10.95;;;9.10;99.90;;;;;;5015141;28;20088;-64
2022/03/28 07:42:54;;;;;;;35.83;11.32;;;9.10;99.90;;;;;;5015423;28;20532;-65
2022/03/28 07:45:20;;;;;;;31.58;11.18;;;9.10;99.90;;;;;;5013206;28;20026;-65
2022/03/28 07:47:46;;;;;;;33.88;12.85;;;9.20;99.90;;;;;;5014667;28;20473;-62
2022/03/28 07:50:12;;;;;;;37.95;14.57;;;9.20;99.90;;;;;;5015266;28;20029;-66
2022/03/28 07:52:39;;;;;;;34.25;12.82;;;9.40;99.90;;;;;;5014939;28;20026;-65
2022/03/28 07:55:07;;;;;;;35.42;13.75;;;9.50;99.90;;;;;;5014881;28;20104;-66
2022/03/28 07:57:34;;;;;;;28.60;11.13;;;9.60;99.90;;;;;;5014861;28;20032;-65
2022/03/28 08:00:00;;;;;;;31.15;9.80;;;9.60;99.90;;;;;;5014673;28;20096;-64
2022/03/28 08:02:25;;;;;;;36.78;10.85;;;9.70;99.90;;;;;;5014012;28;20022;-68
2022/03/28 08:04:51;;;;;;;30.25;12.05;;;9.90;99.90;;;;;;5013451;28;20034;-67
2022/03/28 08:07:17;;;;;;;27.65;12.02;;;9.80;99.90;;;;;;5014436;28;20083;-67
2022/03/28 08:09:43;;;;;;;26.50;10.98;;;9.90;99.90;;;;;;5014866;28;20394;-67
2022/03/28 08:12:09;;;;;;;30.30;12.18;;;10.00;99.90;;;;;;5014550;28;20038;-63
2022/03/28 08:14:36;;;;;;;24.67;10.10;;;10.10;99.90;;;;;;5014748;28;20097;-65
2022/03/28 08:17:04;;;;;;;26.48;10.65;;;10.20;99.90;;;;;;5014632;28;20109;-64
2022/03/28 08:19:29;;;;;;;28.27;11.10;;;10.30;99.90;;;;;;5013421;28;20486;-65
2022/03/28 08:21:55;;;;;;;30.95;12.63;;;10.40;99.90;;;;;;5014215;28;20034;-64
2022/03/28 08:24:21;;;;;;;26.95;11.15;;;10.50;99.90;;;;;;5012966;28;20474;-68
2022/03/28 08:26:47;;;;;;;28.25;11.93;;;10.60;99.90;;;;;;5014075;28;20046;-63
2022/03/28 08:29:13;;;;;;;26.85;10.60;;;10.70;99.90;;;;;;5014219;28;20038;-66
2022/03/28 08:31:39;;;;;;;26.00;9.65;;;10.80;99.90;;;;;;5012633;28;20021;-65
2022/03/28 08:34:07;;;;;;;25.48;9.95;;;11.00;99.90;;;;;;5014453;28;20030;-63
2022/03/28 08:36:33;;;;;;;25.92;10.57;;;11.10;99.90;;;;;;5014214;28;20022;-66
2022/03/28 08:38:58;;;;;;;27.73;11.18;;;11.20;99.90;;;;;;5014209;28;20121;-63
2022/03/28 08:41:26;;;;;;;25.55;10.70;;;11.20;99.90;;;;;;5014200;28;20569;-65
2022/03/28 08:43:52;;;;;;;26.58;11.70;;;11.20;99.90;;;;;;5012814;28;20049;-62
2022/03/28 08:46:18;;;;;;;25.45;11.20;;;11.30;99.90;;;;;;5014063;28;20111;-66
2022/03/28 08:48:44;;;;;;;28.00;11.93;;;11.40;99.90;;;;;;5013685;28;20022;-66
2022/03/28 08:51:13;;;;;;;28.00;11.38;;;11.40;99.90;;;;;;5012224;28;20054;-65
2022/03/28 08:53:39;;;;;;;28.42;11.93;;;11.60;99.90;;;;;;5012599;28;20030;-66
2022/03/28 08:56:07;;;;;;;25.17;10.70;;;11.70;99.90;;;;;;5013869;28;20026;-63
2022/03/28 08:58:33;;;;;;;30.02;12.02;;;11.90;99.90;;;;;;5013715;28;20018;-67
2022/03/28 09:00:59;;;;;;;24.73;11.23;;;12.00;99.90;;;;;;5013446;28;20113;-68
2022/03/28 09:03:47;;;;;;;28.30;13.05;;;12.10;99.90;;;;;;5013848;28;20101;-63
2022/03/28 09:06:36;;;;;;;27.45;11.45;;;12.30;99.90;;;;;;5013929;28;20049;-65
2022/03/28 09:09:27;;;;;;;28.23;11.48;;;12.40;99.90;;;;;;5013964;28;20022;-66
2022/03/28 09:11:57;;;;;;;26.88;12.35;;;12.50;99.90;;;;;;5013600;28;20494;-64
2022/03/28 09:14:24;;;;;;;28.45;11.52;;;12.70;99.90;;;;;;5013306;28;20109;-61
2022/03/28 09:17:02;;;;;;;28.38;12.73;;;12.90;99.90;;;;;;5013444;28;20029;-67
2022/03/28 09:19:55;;;;;;;24.95;12.18;;;13.00;99.90;;;;;;5012266;28;20042;-62
2022/03/28 09:22:29;;;;;;;29.08;14.52;;;13.20;99.90;;;;;;5013266;28;20030;-65
2022/03/28 09:25:00;;;;;;;30.65;14.50;;;13.30;99.90;;;;;;5013397;28;20049;-66
2022/03/28 09:27:28;;;;;;;33.20;13.93;;;13.40;99.90;;;;;;5013365;28;20033;-66
2022/03/28 09:30:14;;;;;;;26.88;12.32;;;13.40;99.90;;;;;;5013763;28;20025;-63
2022/03/28 09:32:54;;;;;;;32.08;13.50;;;13.50;99.90;;;;;;5013535;28;20038;-63
2022/03/28 09:35:27;;;;;;;25.08;11.52;;;13.50;99.90;;;;;;5013651;28;20034;-63
2022/03/28 09:38:04;;;;;;;28.63;12.60;;;13.40;99.90;;;;;;5013614;28;20102;-65
2022/03/28 09:40:39;;;;;;;28.70;11.73;;;13.30;99.90;;;;;;5013304;28;20144;-67
2022/03/28 09:43:23;;;;;;;26.60;12.38;;;13.30;99.90;;;;;;5013179;28;20026;-64
2022/03/28 09:45:54;;;;;;;27.48;13.63;;;13.40;99.90;;;;;;5012035;28;20030;-64
2022/03/28 09:48:22;;;;;;;28.95;12.43;;;13.70;99.90;;;;;;5013358;28;20499;-66
2022/03/28 09:50:55;;;;;;;28.15;13.00;;;14.00;99.90;;;;;;5013370;28;20026;-66
2022/03/28 09:53:25;;;;;;;36.42;16.20;;;14.10;99.90;;;;;;5011673;28;20117;-64
2022/03/28 09:56:00;;;;;;;26.70;11.57;;;14.20;99.90;;;;;;5013009;28;20030;-64
2022/03/28 09:58:47;;;;;;;25.67;11.65;;;14.20;99.90;;;;;;5013335;28;20022;-67
2022/03/28 10:01:14;;;;;;;28.85;13.40;;;14.20;99.90;;;;;;5013239;28;20041;-64
2022/03/28 10:03:40;;;;;;;26.92;12.93;;;14.40;99.90;;;;;;5013301;28;20022;-64
2022/03/28 10:06:07;;;;;;;27.35;13.65;;;14.60;99.90;;;;;;5013432;28;20045;-64
2022/03/28 10:08:34;;;;;;;24.67;10.93;;;15.00;99.90;;;;;;5013424;28;20026;-63
2022/03/28 10:11:00;;;;;;;24.98;11.88;;;15.30;99.90;;;;;;5013317;28;20149;-62
2022/03/28 10:13:26;;;;;;;24.17;11.85;;;15.70;99.90;;;;;;5013069;28;20100;-63
2022/03/28 10:15:53;;;;;;;22.98;11.55;;;16.00;99.90;;;;;;5013351;28;20033;-63
2022/03/28 10:18:19;;;;;;;25.33;11.75;;;16.50;99.90;;;;;;5013535;28;20076;-63
2022/03/28 10:20:53;;;;;;;23.55;11.10;;;16.90;99.90;;;;;;5012940;28;20073;-63
2022/03/28 10:23:20;;;;;;;24.70;9.30;;;17.50;99.90;;;;;;5013208;28;20026;-66
2022/03/28 10:25:47;;;;;;;23.33;9.73;;;17.90;99.80;;;;;;5014853;28;20058;-63
2022/03/28 10:28:12;;;;;;;21.88;9.45;;;18.20;98.90;;;;;;5016426;28;20026;-63
2022/03/28 10:30:40;;;;;;;24.98;11.23;;;18.80;98.40;;;;;;5015953;28;20390;-63
2022/03/28 10:33:17;;;;;;;22.40;10.13;;;19.20;98.00;;;;;;5015912;28;20022;-63
2022/03/28 10:36:07;;;;;;;25.10;11.27;;;20.40;96.10;;;;;;5016357;28;20033;-63
2022/03/28 10:38:32;;;;;;;21.52;10.38;;;21.60;94.60;;;;;;5016543;28;20026;-63
2022/03/28 10:40:59;;;;;;;22.50;11.07;;;22.70;92.60;;;;;;5014117;28;20053;-63
2022/03/28 10:43:30;;;;;;;21.50;11.60;;;23.80;90.80;;;;;;5016515;28;20026;-63
2022/03/28 10:46:01;;;;;;;22.10;10.73;;;24.70;87.70;;;;;;5016651;28;20117;-63
2022/03/28 10:48:44;;;;;;;26.40;11.52;;;25.30;83.50;;;;;;5016090;28;20061;-64
2022/03/28 10:51:24;;;;;;;20.65;11.27;;;25.70;81.10;;;;;;5016455;28;20029;-63
2022/03/28 10:54:05;;;;;;;19.42;8.82;;;26.40;78.90;;;;;;5016338;28;20116;-64
2022/03/28 10:56:32;;;;;;;18.80;8.77;;;26.70;76.50;;;;;;5016128;28;20119;-63
2022/03/28 10:59:09;;;;;;;20.63;9.40;;;27.00;74.80;;;;;;5015802;28;20287;-63
2022/03/28 11:01:41;;;;;;;20.00;8.43;;;27.10;73.50;;;;;;5015823;28;20033;-63
2022/03/28 11:04:15;;;;;;;;;;;27.10;72.30;;;;;;5007338;28;20030;-63
2022/03/28 11:07:20;;;;;;;17.63;7.80;;;27.20;70.50;;;;;;5015562;28;19909;-63
2022/03/28 11:10:06;;;;;;;18.20;8.35;;;27.20;70.10;;;;;;5017856;28;20449;-62
2022/03/28 11:12:37;;;;;;;19.33;9.25;;;27.10;69.60;;;;;;5014234;28;20493;-63
2022/03/28 11:15:05;;;;;;;18.58;8.55;;;27.10;69.50;;;;;;5016096;28;20080;-62
2022/03/28 11:17:34;;;;;;;17.92;7.93;;;27.30;68.90;;;;;;5015653;28;20026;-62
2022/03/28 11:20:18;;;;;;;18.67;8.55;;;27.30;68.30;;;;;;5015647;28;20389;-63
2022/03/28 11:22:48;;;;;;;20.42;8.63;;;27.10;68.50;;;;;;5017950;28;20028;-63
2022/03/28 11:25:32;;;;;;;18.05;7.65;;;27.10;68.60;;;;;;5020412;28;20544;-63
2022/03/28 11:28:21;;;;;;;17.92;7.93;;;27.40;67.50;;;;;;5034826;28;20033;-63
2022/03/28 11:30:48;;;;;;;18.92;8.20;;;27.60;66.30;;;;;;5027245;28;20042;-63
2022/03/28 11:33:21;;;;;;;19.35;8.57;;;27.90;66.40;;;;;;5015264;28;20026;-64
2022/03/28 11:35:52;;;;;;;19.42;8.82;;;28.10;66.20;;;;;;5014020;28;20033;-64
2022/03/28 11:38:20;;;;;;;16.88;8.93;;;28.20;65.20;;;;;;5015446;28;20037;-63
2022/03/28 11:40:45;;;;;;;20.38;9.15;;;28.40;64.70;;;;;;5033990;28;20400;-62
2022/03/28 11:43:11;;;;;;;21.02;9.32;;;28.30;64.70;;;;;;5035085;28;20029;-63
2022/03/28 11:45:48;;;;;;;20.67;9.27;;;28.30;64.80;;;;;;5034891;28;20021;-63
2022/03/28 11:48:20;;;;;;;22.02;9.82;;;28.50;64.40;;;;;;5035286;28;20032;-63
2022/03/28 11:50:47;;;;;;;18.58;9.70;;;28.50;63.70;;;;;;5035196;28;20116;-63
2022/03/28 11:53:17;;;;;;;23.17;10.48;;;28.50;63.70;;;;;;5034821;28;20021;-63
2022/03/28 11:55:54;;;;;;;24.23;10.90;;;28.60;63.80;;;;;;5032622;28;20116;-63
2022/03/28 11:58:30;;;;;;;24.75;11.98;;;28.70;63.10;;;;;;5014348;28;20034;-63
2022/03/28 12:01:10;;;;;;;20.27;10.90;;;28.70;62.50;;;;;;5014765;28;20065;-63
2022/03/28 12:03:37;;;;;;;20.95;11.23;;;28.50;63.00;;;;;;5009154;28;20470;-63
2022/03/28 12:06:04;;;;;;;22.10;11.23;;;28.50;63.10;;;;;;5014530;28;20101;-64
2022/03/28 12:08:30;;;;;;;21.70;11.05;;;28.50;62.90;;;;;;5015642;28;20030;-64
2022/03/28 12:10:56;;;;;;;21.27;11.18;;;28.40;62.50;;;;;;5014587;28;20037;-63
2022/03/28 12:13:23;;;;;;;23.45;11.45;;;28.20;62.80;;;;;;5015228;28;20065;-63
2022/03/28 12:15:52;;;;;;;20.77;10.65;;;28.00;63.20;;;;;;5014776;28;20026;-62
2022/03/28 12:18:22;;;;;;;21.90;10.60;;;28.10;62.90;;;;;;5013220;28;20394;-63
2022/03/28 12:20:54;;;;;;;22.15;10.70;;;28.10;62.60;;;;;;5012284;28;20041;-62
2022/03/28 12:23:25;;;;;;;24.73;11.25;;;28.10;63.00;;;;;;5012965;28;20121;-63
2022/03/28 12:25:52;;;;;;;;;;;27.90;63.20;;;;;;5014044;28;20512;-64
2022/03/28 12:28:24;;;;;;;20.45;9.65;;;27.50;63.50;;;;;;5014498;28;19906;-64
2022/03/28 12:30:55;;;;;;;22.38;11.13;;;27.20;63.80;;;;;;5014414;28;20030;-66
2022/03/28 12:33:26;;;;;;;23.30;11.03;;;26.90;64.10;;;;;;5013500;28;20116;-65
2022/03/28 12:36:09;;;;;;;22.25;12.20;;;26.70;64.40;;;;;;5014210;28;20533;-64
2022/03/28 12:38:43;;;;;;;21.33;10.30;;;26.60;64.90;;;;;;5008117;28;20373;-65
2022/03/28 12:41:11;;;;;;;23.95;10.35;;;26.80;64.50;;;;;;5009551;28;20464;-65